Frankfort, ME

11:36 AM EDT on March 27, 2017 (GMT -0400)
Mosquito Mountain | | Change Station
Active Advisory: Freezing Rain Advisory

Elev 143 ft 44.59 °N, 68.87 °W | Updated 17 seconds ago

Snow
Snow
33.2 °F
Feels Like 33 °F
N
1.0
Wind Variable Wind from SSE

Today
High -- | Low -- °F
--% Chance of Precip.
Yesterday
High -- | Low -- °F
Precip. -- in
Pressure 30.32 in
Visibility 4.0 miles
Clouds Mostly Cloudy 1400 ft
Mostly Cloudy 3100 ft
Overcast 4100 ft
Windchill 33 °F
Dew Point 32 °F
Humidity 96%
Rainfall 0.02 in
Snow Depth Not available.
6:25 AM 6:57 PM
Waning Crescent, 0% visible
METAR KBGR 271453Z 12008KT 4SM -FZRAPL BR BKN014 BKN031 OVC041 M01/M02 A3031 RMK AO2 PLE16B36 SLP265 P0005 60010 I1003 I3007 T10061017 56014
Pressure 30.32 in
Visibility 4.0 miles
Clouds Mostly Cloudy 1400 ft
Mostly Cloudy 3100 ft
Overcast 4100 ft
Windchill 33 °F
Dew Point 32 °F
Humidity 96%
Rainfall 0.02 in
Snow Depth Not available.
6:25 AM 6:57 PM
Waning Crescent, 0% visible
METAR KBGR 271453Z 12008KT 4SM -FZRAPL BR BKN014 BKN031 OVC041 M01/M02 A3031 RMK AO2 PLE16B36 SLP265 P0005 60010 I1003 I3007 T10061017 56014

Get Your Daily Forecast Email!

Thanks for signing up!

Be on the lookout for a verification email in your inbox.

You'll start receiving severe weather alerts in your inbox..

×

10-Day Weather Forecast

Almanac

Astronomy

Mar. 27, 2017 Rise Set
Actual Time
Civil Twilight
Nautical Twilight
Astronomical Twilight
Moon
Length of Visible Light
Length of Day
Tomorrow will be .
, % of the Moon is Illuminated

Today's Extremes

State Highs State Lows

Community

WunderPhotos

Upload Photos

1,962,540 photos uploaded!

WunderBlog® & News

Nearby

Air Quality

  Air Quality AQ Index Pollutant
Not available.

Snow Depth

Station Depth Elevation

Earthquake Activity

City Distance Mag. Time & Date
Minimum magnitude displayed is 2.5.

Earthquake Activity

City Distance Mag. Time & Date
Minimum magnitude displayed is 2.5.

Coastal Water Temperatures

Place Temperature

Stations

Nearby Weather Stations

Station Location Temp. Windchill Dew Point Humidity Wind Precip. Elev Updated Type
                   

Watches & Warnings

Freezing Rain Advisory
Issued: 10:55 AM EDT Mar. 27, 2017 – National Weather Service

... Freezing Rain Advisory remains in effect until 2 PM EDT this
afternoon...


* hazard types... freezing rain.

* Ice accumulations... around a trace.

* Timing... freezing rain... and some pockets of sleet should
transition to rain by early afternoon.

* Impacts... freezing rain... along with with some sleet will cause
slick travel conditions.

* Winds... east 5 mph or less.

* Temperatures... in the lower to mid 30s.

Precautionary/preparedness actions...

A Freezing Rain Advisory means that periods of freezing rain or
freezing drizzle will cause travel difficulties. Be prepared for
slippery roads. Slow down and use caution while driving.